Time;durP1;ratioP1;P1;durP2;ratioP2;P2;SDS_P1;SDS_P2;PMS_P1;PMS_P2;Temp;Humidity;BMP_temperature;BMP_pressure;BME280_temperature;BME280_humidity;BME280_pressure;Samples;Min_cycle;Max_cycle;Signal;HPM_P1;HPM_P2
2023/09/17 00:00:04;;;;;;;20.77;16.00;;;;;;;-144.73;100.00;54372.81;5040388;28;20037;-69
2023/09/17 00:02:30;;;;;;;22.60;14.43;;;;;;;-144.73;100.00;54374.84;5041200;28;20029;-71
2023/09/17 00:04:56;;;;;;;19.10;13.65;;;;;;;-144.73;100.00;54350.22;5040483;28;20061;-69
2023/09/17 00:07:21;;;;;;;24.25;16.30;;;;;;;-144.73;100.00;54378.97;5041212;28;20024;-69
2023/09/17 00:09:46;;;;;;;25.17;15.48;;;;;;;-144.73;100.00;54366.66;5039791;28;20036;-69
2023/09/17 00:12:12;;;;;;;24.95;15.85;;;;;;;-144.73;100.00;54424.13;5040964;28;20023;-70
2023/09/17 00:14:37;;;;;;;25.23;13.23;;;;;;;-144.73;100.00;54358.44;5041335;28;20021;-69
2023/09/17 00:17:03;;;;;;;22.38;14.93;;;;;;;-144.73;100.00;54424.13;5040759;28;20029;-69
2023/09/17 00:19:28;;;;;;;17.90;12.98;;;;;;;-144.73;100.00;54366.66;5040895;28;20021;-69
2023/09/17 00:21:53;;;;;;;20.45;14.35;;;;;;;-144.73;100.00;54354.34;5040234;28;20397;-70
2023/09/17 00:24:19;;;;;;;22.48;13.90;;;;;;;-144.73;100.00;54370.75;5041130;28;20021;-69
2023/09/17 00:26:44;;;;;;;25.77;15.93;;;;;;;-144.73;100.00;54370.75;5040104;28;20091;-70
2023/09/17 00:29:10;;;;;;;19.85;15.10;;;;;;;-144.73;100.00;54407.69;5041123;28;20079;-69
2023/09/17 00:31:37;;;;;;;24.27;16.38;;;;;;;-144.73;100.00;54391.28;5041185;28;20030;-69
2023/09/17 00:34:03;;;;;;;24.70;15.18;;;;;;;-144.73;100.00;54362.53;5042616;28;20021;-69
2023/09/17 00:36:28;;;;;;;22.52;14.48;;;;;;;-144.73;100.00;54385.13;5041458;28;20421;-69
2023/09/17 00:38:53;;;;;;;20.40;15.40;;;;;;;-144.73;100.00;54391.28;5041708;28;20040;-69
2023/09/17 00:41:19;;;;;;;21.20;15.07;;;;;;;-144.73;100.00;54383.06;5040629;28;20038;-70
2023/09/17 00:43:44;;;;;;;19.05;14.55;;;;;;;-144.73;100.00;54385.13;5041019;28;20017;-69
2023/09/17 00:46:13;;;;;;;23.45;14.32;;;;;;;-144.73;100.00;54407.69;5040965;28;20105;-69
2023/09/17 00:48:39;;;;;;;23.77;16.80;;;;;;;-144.73;100.00;54407.69;5041103;28;20033;-68
2023/09/17 00:51:05;;;;;;;18.98;14.40;;;;;;;-144.73;100.00;54370.75;5040274;28;20034;-69
2023/09/17 00:53:31;;;;;;;22.25;15.43;;;;;;;-144.73;100.00;54395.38;5040449;28;20095;-70
2023/09/17 00:55:56;;;;;;;20.20;13.70;;;;;;;-144.73;100.00;54383.06;5040484;28;20033;-70
2023/09/17 00:58:22;;;;;;;18.63;13.15;;;;;;;-144.73;100.00;54358.44;5040607;28;20029;-70
2023/09/17 01:00:48;;;;;;;22.83;13.95;;;;;;;-144.73;100.00;54395.38;5039747;28;20029;-69
2023/09/17 01:03:14;;;;;;;21.60;15.13;;;;;;;-144.73;100.00;54378.97;5040944;28;20029;-69
2023/09/17 01:05:42;;;;;;;17.90;13.32;;;;;;;-144.73;100.00;54383.06;5073350;28;20033;-70
2023/09/17 01:08:09;;;;;;;21.83;14.60;;;;;;;-144.73;100.00;54395.38;5040990;28;20052;-70
2023/09/17 01:10:39;;;;;;;18.17;13.93;;;;;;;-144.73;100.00;54346.13;5039801;28;20025;-70
2023/09/17 01:13:05;;;;;;;20.40;14.05;;;;;;;-144.73;100.00;54370.75;5040598;28;20021;-70
2023/09/17 01:15:30;;;;;;;21.80;14.07;;;;;;;-144.73;100.00;54407.69;5040323;28;20191;-70
2023/09/17 01:17:57;;;;;;;18.75;13.95;;;;;;;-144.73;100.00;54407.69;5040676;28;20022;-69
2023/09/17 01:20:31;;;;;;;21.73;14.73;;;;;;;-144.73;100.00;54395.38;5039375;28;20034;-70
2023/09/17 01:23:02;;;;;;;18.40;13.27;;;;;;;-144.73;100.00;54395.38;5073355;28;20053;-70
2023/09/17 01:25:54;;;;;;;24.98;14.15;;;;;;;-144.73;100.00;54370.75;5039844;28;20034;-70
2023/09/17 01:28:21;;;;;;;25.08;15.68;;;;;;;-144.73;100.00;54417.97;5041103;28;20084;-69
2023/09/17 01:30:46;;;;;;;22.92;13.88;;;;;;;-144.73;100.00;54374.84;5039935;28;20057;-69
2023/09/17 01:33:12;;;;;;;20.10;13.35;;;;;;;-144.73;100.00;54395.38;5040414;28;20022;-69
2023/09/17 01:36:06;;;;;;;21.65;14.25;;;;;;;-144.73;100.00;54411.81;5039808;28;20488;-69
2023/09/17 01:38:38;;;;;;;22.52;14.63;;;;;;;-144.73;100.00;54387.19;5035278;28;20034;-70
2023/09/17 01:41:04;;;;;;;27.10;14.20;;;;;;;-144.73;100.00;54383.06;5039564;28;20052;-69
2023/09/17 01:43:31;;;;;;;26.02;14.57;;;;;;;-144.73;100.00;54358.44;5040340;28;20026;-69
2023/09/17 01:45:58;;;;;;;17.85;14.10;;;;;;;-144.73;100.00;54362.53;5039067;28;20095;-69
2023/09/17 01:48:24;;;;;;;21.23;14.77;;;;;;;-144.73;100.00;54387.19;5040087;28;20104;-68
2023/09/17 01:50:52;;;;;;;16.42;13.02;;;;;;;-144.73;100.00;54428.22;5040282;28;20071;-68
2023/09/17 01:53:18;;;;;;;23.05;13.40;;;;;;;-144.73;100.00;54409.75;5040080;28;20463;-69
2023/09/17 01:55:43;;;;;;;23.95;15.05;;;;;;;-144.73;100.00;54407.69;5040088;28;20038;-69
2023/09/17 01:58:12;;;;;;;17.83;13.50;;;;;;;-144.73;100.00;54407.69;5073340;28;20033;-69
2023/09/17 02:00:38;;;;;;;16.85;13.25;;;;;;;-144.73;100.00;54413.84;5039031;28;20033;-68
2023/09/17 02:03:04;;;;;;;20.90;13.20;;;;;;;-144.73;100.00;54407.69;5039835;28;20025;-69
2023/09/17 02:05:29;;;;;;;19.85;13.45;;;;;;;-144.73;100.00;54438.50;5073070;28;20535;-69
2023/09/17 02:07:55;;;;;;;21.50;13.80;;;;;;;-144.73;100.00;54358.44;5039463;28;20064;-69
2023/09/17 02:10:23;;;;;;;17.30;12.82;;;;;;;-144.73;100.00;54415.91;5072279;28;20038;-68
2023/09/17 02:12:48;;;;;;;18.10;14.15;;;;;;;-144.73;100.00;54420.00;5039528;28;20022;-68
2023/09/17 02:15:14;;;;;;;23.13;14.68;;;;;;;-144.73;100.00;54411.81;5039372;28;20056;-68
2023/09/17 02:17:42;;;;;;;18.90;13.40;;;;;;;-144.73;100.00;54387.19;5039191;28;20029;-69
2023/09/17 02:20:08;;;;;;;26.17;14.05;;;;;;;-144.73;100.00;54432.31;5038477;28;20053;-68
2023/09/17 02:22:34;;;;;;;20.98;13.88;;;;;;;-144.73;100.00;54411.81;5038373;28;20025;-69
2023/09/17 02:24:59;;;;;;;19.58;12.35;;;;;;;-144.73;100.00;54395.38;5037421;28;20087;-69
2023/09/17 02:27:25;;;;;;;15.70;11.10;;;;;;;-144.73;100.00;54424.13;5038131;28;20030;-69
2023/09/17 02:29:50;;;;;;;17.85;12.32;;;;;;;-144.73;100.00;54395.38;5038170;28;20025;-68
2023/09/17 02:32:15;;;;;;;24.30;11.07;;;;;;;-144.73;100.00;54417.97;5038101;28;20021;-69
2023/09/17 02:34:41;;;;;;;17.70;11.98;;;;;;;-144.73;100.00;54420.00;5039022;28;20035;-68
2023/09/17 02:37:06;;;;;;;19.30;13.50;;;;;;;-144.73;100.00;54350.22;5038074;28;20028;-69
2023/09/17 02:39:32;;;;;;;17.45;11.55;;;;;;;-144.73;100.00;54407.69;5038079;28;20025;-69
2023/09/17 02:41:58;;;;;;;17.25;12.10;;;;;;;-144.73;100.00;54424.13;5037334;28;20049;-69
2023/09/17 02:44:25;;;;;;;18.42;12.70;;;;;;;-144.73;100.00;54448.75;5038505;28;20472;-69
2023/09/17 02:46:51;;;;;;;18.58;13.13;;;;;;;-144.73;100.00;54420.00;5037378;28;20029;-68
2023/09/17 02:49:16;;;;;;;21.10;13.43;;;;;;;-144.73;100.00;54420.00;5071590;28;20049;-68
2023/09/17 02:51:42;;;;;;;18.75;12.48;;;;;;;-144.73;100.00;54426.16;5038072;28;20158;-68
2023/09/17 02:54:07;;;;;;;17.13;12.73;;;;;;;-144.73;100.00;54366.66;5037992;28;20112;-69
2023/09/17 02:56:33;;;;;;;20.13;12.32;;;;;;;-144.73;100.00;54407.69;5037895;28;20026;-68
2023/09/17 02:58:58;;;;;;;15.52;11.10;;;;;;;-144.73;100.00;54387.19;5039813;28;20021;-68
2023/09/17 03:01:24;;;;;;;18.98;12.48;;;;;;;-144.73;100.00;54407.69;5038302;28;20044;-69
2023/09/17 03:03:50;;;;;;;19.48;13.02;;;;;;;-144.73;100.00;54399.50;5039081;28;20033;-69
2023/09/17 03:06:16;;;;;;;21.98;13.80;;;;;;;-144.73;100.00;54374.84;5038220;28;20042;-69
2023/09/17 03:08:42;;;;;;;17.77;13.75;;;;;;;-144.73;100.00;54420.00;5038454;28;20025;-71
2023/09/17 03:11:13;;;;;;;17.77;13.02;;;;;;;-144.73;100.00;54399.50;5037392;28;20057;-71
2023/09/17 03:13:40;;;;;;;15.25;11.27;;;;;;;-144.73;100.00;54442.59;5038868;28;20060;-70
2023/09/17 03:16:06;;;;;;;21.75;13.45;;;;;;;-144.73;100.00;54387.19;5039221;28;20033;-71
2023/09/17 03:18:31;;;;;;;19.52;12.52;;;;;;;-144.73;100.00;54407.69;5038918;28;20017;-69
2023/09/17 03:20:57;;;;;;;20.77;13.52;;;;;;;-144.73;100.00;54391.28;5037585;28;20531;-69
2023/09/17 03:23:22;;;;;;;19.42;14.38;;;;;;;-144.73;100.00;54411.81;5071735;28;20025;-69
2023/09/17 03:25:48;;;;;;;18.33;12.80;;;;;;;-144.73;100.00;54461.06;5038527;28;20030;-69
2023/09/17 03:28:13;;;;;;;16.75;12.90;;;;;;;-144.73;100.00;54446.69;5038731;28;20032;-70
2023/09/17 03:30:38;;;;;;;19.63;13.57;;;;;;;-144.73;100.00;54420.00;5037888;28;20108;-68
2023/09/17 03:33:05;;;;;;;16.15;11.65;;;;;;;-144.73;100.00;54411.81;5039396;28;20025;-69
2023/09/17 03:35:33;;;;;;;16.63;11.23;;;;;;;-144.73;100.00;54395.38;5038178;28;20061;-69
2023/09/17 03:37:58;;;;;;;15.80;12.20;;;;;;;-144.73;100.00;54391.28;5038991;28;20029;-69
2023/09/17 03:40:24;;;;;;;22.90;13.93;;;;;;;-144.73;100.00;54415.91;5038448;28;20095;-69
2023/09/17 03:42:50;;;;;;;14.32;11.75;;;;;;;-144.73;100.00;54383.06;5072165;28;20032;-68
2023/09/17 03:45:15;;;;;;;14.07;10.43;;;;;;;-144.73;100.00;54415.91;5037398;28;20089;-69
2023/09/17 03:47:42;;;;;;;16.17;12.35;;;;;;;-144.73;100.00;54387.19;5038187;28;20025;-69
2023/09/17 03:50:08;;;;;;;16.15;12.02;;;;;;;-144.73;100.00;54407.69;5038307;28;20049;-69
2023/09/17 03:52:36;;;;;;;15.77;12.57;;;;;;;-144.73;100.00;54452.84;5038143;28;20024;-69
2023/09/17 03:55:05;;;;;;;16.25;12.70;;;;;;;-144.73;100.00;54366.66;5037415;28;20030;-69
2023/09/17 03:57:32;;;;;;;18.05;12.93;;;;;;;-144.73;100.00;54391.28;5037913;28;20048;-69
2023/09/17 03:59:57;;;;;;;17.05;11.88;;;;;;;-144.73;100.00;54432.31;5037650;28;20022;-69
2023/09/17 04:02:23;;;;;;;18.42;13.13;;;;;;;-144.73;100.00;54407.69;5038560;28;20035;-69
2023/09/17 04:04:48;;;;;;;19.73;13.20;;;;;;;-144.73;100.00;54424.13;5037043;28;20036;-69
2023/09/17 04:07:14;;;;;;;18.10;14.63;;;;;;;-144.73;100.00;54391.28;5070871;28;20025;-70
2023/09/17 04:09:39;;;;;;;18.35;13.02;;;;;;;-144.73;100.00;54366.66;5038222;28;20029;-68
2023/09/17 04:12:05;;;;;;;17.00;13.18;;;;;;;-144.73;100.00;54428.22;5036994;28;20034;-68
2023/09/17 04:14:32;;;;;;;17.45;12.63;;;;;;;-144.73;100.00;54420.00;5038247;28;20040;-69
2023/09/17 04:17:02;;;;;;;18.00;13.95;;;;;;;-144.73;100.00;54428.22;5037013;28;20057;-69
2023/09/17 04:19:32;;;;;;;17.60;12.88;;;;;;;-144.73;100.00;54420.00;5038195;28;20026;-69
2023/09/17 04:21:58;;;;;;;14.80;11.60;;;;;;;-144.73;100.00;54444.66;5036902;28;20047;-69
2023/09/17 04:24:24;;;;;;;16.90;12.55;;;;;;;-144.73;100.00;54411.81;5037732;28;20028;-69
2023/09/17 04:26:52;;;;;;;14.95;11.80;;;;;;;-144.73;100.00;54417.97;5040952;28;20060;-69
2023/09/17 04:29:18;;;;;;;15.65;13.32;;;;;;;-144.73;100.00;54438.50;5041551;28;20025;-69
2023/09/17 04:31:44;;;;;;;19.48;13.48;;;;;;;-144.73;100.00;54430.28;5040875;28;20036;-69
2023/09/17 04:34:11;;;;;;;20.92;13.25;;;;;;;-144.73;100.00;54413.84;5041723;28;20026;-69
2023/09/17 04:36:36;;;;;;;23.92;13.15;;;;;;;-144.73;100.00;54374.84;5074018;28;20033;-69
2023/09/17 04:39:02;;;;;;;17.73;12.90;;;;;;;-144.73;100.00;54420.00;5041404;28;20045;-69
2023/09/17 04:41:28;;;;;;;20.08;13.00;;;;;;;-144.73;100.00;54424.13;5040995;28;20117;-69
2023/09/17 04:43:53;;;;;;;16.15;13.65;;;;;;;-144.73;100.00;54407.69;5041339;28;20057;-69
2023/09/17 04:46:19;;;;;;;16.75;11.65;;;;;;;-144.73;100.00;54448.75;5041145;28;20045;-69
2023/09/17 04:48:44;;;;;;;21.38;13.55;;;;;;;-144.73;100.00;54422.06;5041453;28;20175;-69
2023/09/17 04:51:15;;;;;;;16.45;12.43;;;;;;;-144.73;100.00;54415.91;5040275;28;20033;-69
2023/09/17 04:53:41;;;;;;;16.25;12.93;;;;;;;-144.73;100.00;54407.69;5041633;28;20018;-68
2023/09/17 04:56:06;;;;;;;16.48;13.25;;;;;;;-144.73;100.00;54407.69;5041160;28;20044;-69
2023/09/17 04:58:33;;;;;;;16.33;12.75;;;;;;;-144.73;100.00;54422.06;5040842;28;20021;-69
2023/09/17 05:00:58;;;;;;;16.42;12.50;;;;;;;-144.73;100.00;54399.50;5041060;28;20064;-69
2023/09/17 05:03:24;;;;;;;17.42;11.63;;;;;;;-144.73;100.00;54452.84;5041519;28;20029;-69
2023/09/17 05:05:49;;;;;;;18.23;12.60;;;;;;;-144.73;100.00;54432.31;5040693;28;20040;-68
2023/09/17 05:08:18;;;;;;;16.45;13.20;;;;;;;-144.73;100.00;54444.66;5077363;28;20024;-69
2023/09/17 05:10:44;;;;;;;17.80;11.68;;;;;;;-144.73;100.00;54436.44;5052028;28;20025;-70
2023/09/17 05:13:09;;;;;;;15.68;11.85;;;;;;;-144.73;100.00;54428.22;5032689;28;20116;-69
2023/09/17 05:15:36;;;;;;;19.52;14.85;;;;;;;-144.73;100.00;54444.66;5038341;28;20029;-69
2023/09/17 05:18:06;;;;;;;20.45;15.95;;;;;;;-144.73;100.00;54440.53;5037150;28;20438;-69
2023/09/17 05:20:31;;;;;;;24.15;15.98;;;;;;;-144.73;100.00;54432.31;5031072;28;20030;-69
2023/09/17 05:22:56;;;;;;;18.95;13.85;;;;;;;-144.73;100.00;54411.81;5031302;28;20050;-70
2023/09/17 05:25:22;;;;;;;17.38;13.55;;;;;;;-144.73;100.00;54432.31;5045392;28;20029;-70
2023/09/17 05:27:47;;;;;;;21.63;17.30;;;;;;;-144.73;100.00;54411.81;5045037;28;20024;-69
2023/09/17 05:30:13;;;;;;;19.85;15.05;;;;;;;-144.73;100.00;54424.13;5035899;28;20042;-69
2023/09/17 05:32:39;;;;;;;21.40;16.42;;;;;;;-144.73;100.00;54461.06;5041770;28;20014;-70
2023/09/17 05:35:05;;;;;;;17.42;13.52;;;;;;;-144.73;100.00;54432.31;5037354;28;20029;-69
2023/09/17 05:37:33;;;;;;;19.98;15.45;;;;;;;-144.73;100.00;54407.69;5035082;28;20416;-69
2023/09/17 05:39:58;;;;;;;20.08;13.50;;;;;;;-144.73;100.00;54444.66;5035395;28;20021;-69
2023/09/17 05:42:24;;;;;;;16.00;13.60;;;;;;;-144.73;100.00;54420.00;5033630;28;20028;-69
2023/09/17 05:44:49;;;;;;;20.40;12.88;;;;;;;-144.73;100.00;54415.91;5038974;28;20028;-69
2023/09/17 05:47:14;;;;;;;14.98;11.05;;;;;;;-144.73;100.00;54387.19;5039057;28;20171;-69
2023/09/17 05:49:40;;;;;;;18.13;14.15;;;;;;;-144.73;100.00;54407.69;5035783;28;20528;-70
2023/09/17 05:52:05;;;;;;;19.25;13.20;;;;;;;-144.73;100.00;54440.53;5027518;28;20036;-70
2023/09/17 05:54:31;;;;;;;18.83;12.93;;;;;;;-144.73;100.00;54432.31;5026311;28;20029;-70
2023/09/17 05:56:56;;;;;;;19.88;14.07;;;;;;;-144.73;100.00;54424.13;5037347;28;20026;-70
2023/09/17 05:59:21;;;;;;;16.35;12.82;;;;;;;-144.73;100.00;54415.91;5038131;28;20021;-69
2023/09/17 06:01:47;;;;;;;16.88;13.85;;;;;;;-144.73;100.00;54434.38;5037790;28;20053;-70
2023/09/17 06:04:12;;;;;;;14.65;12.68;;;;;;;-144.73;100.00;54424.13;5039989;28;20025;-70
2023/09/17 06:06:37;;;;;;;25.85;16.20;;;;;;;-144.73;100.00;54411.81;5037821;28;20100;-70
2023/09/17 06:09:03;;;;;;;24.40;15.20;;;;;;;-144.73;100.00;54438.50;5035721;28;20021;-70
2023/09/17 06:11:29;;;;;;;19.67;13.25;;;;;;;-144.73;100.00;54436.44;5039985;28;20029;-70
2023/09/17 06:13:54;;;;;;;16.73;13.27;;;;;;;-144.73;100.00;54428.22;5032597;28;20013;-71
2023/09/17 06:16:19;;;;;;;18.73;13.20;;;;;;;-144.73;100.00;54436.44;5031497;28;20041;-70
2023/09/17 06:18:45;;;;;;;18.42;12.95;;;;;;;-144.73;100.00;54448.75;5038203;28;20032;-70
2023/09/17 06:21:10;;;;;;;17.35;12.30;;;;;;;-144.73;100.00;54407.69;5035309;28;20037;-70
2023/09/17 06:23:35;;;;;;;17.55;12.55;;;;;;;-144.73;100.00;54411.81;5037860;28;20028;-70
2023/09/17 06:26:01;;;;;;;17.80;12.32;;;;;;;-144.73;100.00;54420.00;5034245;28;20029;-70
2023/09/17 06:28:26;;;;;;;19.88;13.98;;;;;;;-144.73;100.00;54407.69;5036191;28;20033;-71
2023/09/17 06:30:53;;;;;;;20.98;12.82;;;;;;;-144.73;100.00;54438.50;5033952;28;20029;-69
2023/09/17 06:33:18;;;;;;;16.55;13.20;;;;;;;-144.73;100.00;54454.91;5036487;28;20052;-69
2023/09/17 06:35:44;;;;;;;21.25;13.18;;;;;;;-144.73;100.00;54434.38;5037307;28;20029;-69
2023/09/17 06:38:11;;;;;;;17.08;12.15;;;;;;;-144.73;100.00;54378.97;5031343;28;20041;-71
2023/09/17 06:40:37;;;;;;;16.10;12.70;;;;;;;-144.73;100.00;54428.22;5037844;28;20106;-70
2023/09/17 06:43:02;;;;;;;13.32;11.43;;;;;;;-144.73;100.00;54415.91;5042583;28;20025;-70
2023/09/17 06:45:27;;;;;;;12.00;10.27;;;;;;;-144.73;100.00;54436.44;5044720;28;20029;-70
2023/09/17 06:47:53;;;;;;;18.58;12.20;;;;;;;-144.73;100.00;54436.44;5036042;28;20021;-70
2023/09/17 06:50:18;;;;;;;15.48;11.48;;;;;;;-144.73;100.00;54383.06;5027401;28;20037;-71
2023/09/17 06:52:43;;;;;;;18.00;11.02;;;;;;;-144.73;100.00;54424.13;5026256;28;20055;-70
2023/09/17 06:55:09;;;;;;;18.05;10.27;;;;;;;-144.73;100.00;54397.44;5035299;28;20040;-71
2023/09/17 06:57:34;;;;;;;13.80;10.50;;;;;;;-144.73;100.00;54415.91;5030884;28;20063;-70
2023/09/17 07:00:00;;;;;;;14.30;9.45;;;;;;;-144.73;100.00;54378.97;5037146;28;20092;-70
2023/09/17 07:02:25;;;;;;;15.05;9.88;;;;;;;-144.73;100.00;54415.91;5029080;28;20044;-70
2023/09/17 07:04:51;;;;;;;17.52;9.75;;;;;;;-144.73;100.00;54399.50;5032081;28;20021;-70
2023/09/17 07:07:16;;;;;;;21.10;10.13;;;;;;;-144.73;100.00;54407.69;5036605;28;20052;-70
2023/09/17 07:09:43;;;;;;;11.43;9.52;;;;;;;-144.73;100.00;54407.69;5036272;28;20025;-70
2023/09/17 07:12:08;;;;;;;15.50;9.57;;;;;;;-144.73;100.00;54354.34;5039216;28;20677;-70
2023/09/17 07:14:33;;;;;;;16.33;10.95;;;;;;;-144.73;100.00;54397.44;5033274;28;20048;-70
2023/09/17 07:16:59;;;;;;;16.92;8.73;;;;;;;-144.73;100.00;54430.28;5033960;28;20030;-70
2023/09/17 07:19:24;;;;;;;13.23;10.10;;;;;;;-144.73;100.00;54370.75;5033664;28;20037;-70
2023/09/17 07:21:49;;;;;;;10.85;9.48;;;;;;;-144.73;100.00;54407.69;5038124;28;20522;-70
2023/09/17 07:24:15;;;;;;;13.05;7.90;;;;;;;-144.73;100.00;54387.19;5042058;28;20022;-70
2023/09/17 07:26:42;;;;;;;14.95;9.80;;;;;;;-144.73;100.00;54395.38;5027477;28;20033;-70
2023/09/17 07:29:07;;;;;;;15.30;9.27;;;;;;;-144.73;100.00;54428.22;5037675;28;20035;-70
2023/09/17 07:31:33;;;;;;;22.08;9.25;;;;;;;-144.73;100.00;54407.69;5032574;28;20112;-70
2023/09/17 07:33:58;;;;;;;17.00;9.38;;;;;;;-144.73;100.00;54411.81;5022063;28;20030;-70
2023/09/17 07:36:23;;;;;;;13.02;9.32;;;;;;;-144.73;100.00;54436.44;5029714;28;20046;-70
2023/09/17 07:38:49;;;;;;;13.60;9.20;;;;;;;-144.73;100.00;54407.69;5042376;28;20028;-70
2023/09/17 07:41:14;;;;;;;16.65;11.80;;;;;;;-144.73;100.00;54370.75;5032602;28;20091;-70
2023/09/17 07:43:40;;;;;;;8.82;7.93;;;;;;;-144.73;100.00;54432.31;5028513;28;20135;-70
2023/09/17 07:46:06;;;;;;;12.32;8.18;;;;;;;-144.73;100.00;54428.22;5029154;28;20029;-70
2023/09/17 07:48:31;;;;;;;12.48;8.43;;;;;;;-144.73;100.00;54407.69;5028377;28;20166;-69
2023/09/17 07:50:57;;;;;;;16.60;8.73;;;;;;;-144.73;100.00;54350.22;5021868;28;20037;-69
2023/09/17 07:53:23;;;;;;;12.40;8.10;;;;;;;-144.73;100.00;54461.06;5034969;28;20026;-70
2023/09/17 07:55:49;;;;;;;11.80;7.68;;;;;;;-144.73;100.00;54378.97;5025368;28;20157;-70
2023/09/17 07:58:14;;;;;;;10.98;8.15;;;;;;;-144.73;100.00;54387.19;5027479;28;20108;-70
2023/09/17 08:00:40;;;;;;;13.85;8.57;;;;;;;-144.73;100.00;54381.00;5032959;28;20085;-70
2023/09/17 08:03:05;;;;;;;14.38;8.05;;;;;;;-144.73;100.00;54420.00;5038900;28;20140;-70
2023/09/17 08:05:30;;;;;;;9.85;7.22;;;;;;;-144.73;100.00;54407.69;5039404;28;20045;-70
2023/09/17 08:07:56;;;;;;;10.85;7.80;;;;;;;-144.73;100.00;54387.19;5044999;28;20024;-70
2023/09/17 08:10:21;;;;;;;10.45;7.07;;;;;;;-144.73;100.00;54391.28;5042084;28;20037;-70
2023/09/17 08:12:47;;;;;;;10.85;5.95;;;;;;;-144.73;100.00;54374.84;5038577;28;20024;-69
2023/09/17 08:15:14;;;;;;;9.18;6.63;;;;;;;-144.73;100.00;54391.28;5036266;28;20044;-70
2023/09/17 08:17:39;;;;;;;11.30;6.88;;;;;;;-144.73;100.00;54436.44;5037724;28;20028;-70
2023/09/17 08:20:09;;;;;;;8.57;6.70;;;;;;;-144.73;100.00;54411.81;5041959;28;20085;-70
2023/09/17 08:22:35;;;;;;;8.10;6.40;;;;;;;-144.73;100.00;54440.53;5040448;28;20060;-69
2023/09/17 08:25:01;;;;;;;9.85;6.38;;;;;;;-144.73;100.00;54362.53;5042118;28;20182;-70
2023/09/17 08:27:26;;;;;;;8.18;6.07;;;;;;;-144.73;100.00;54391.28;5028145;28;20135;-70
2023/09/17 08:29:52;;;;;;;12.32;6.38;;;;;;;-144.73;100.00;54362.53;5024951;28;20108;-70
2023/09/17 08:32:18;;;;;;;12.68;6.47;;;;;;;-144.73;100.00;54407.69;5039358;28;20025;-69
2023/09/17 08:34:43;;;;;;;10.63;5.93;;;;;;;-144.73;100.00;54366.66;5032356;28;20033;-70
2023/09/17 08:37:08;;;;;;;11.30;6.47;;;;;;;-144.73;100.00;54391.28;5035233;28;20039;-70
2023/09/17 08:39:34;;;;;;;7.65;4.88;;;;;;;-144.73;100.00;54387.19;5034504;28;20025;-70
2023/09/17 08:42:00;;;;;;;7.38;5.88;;;;;;;-144.73;100.00;54393.34;5030589;28;20088;-70
2023/09/17 08:44:30;;;;;;;11.48;6.15;;;;;;;-144.73;100.00;54399.50;5036361;28;20029;-70
2023/09/17 08:46:57;;;;;;;7.28;6.15;;;;;;;-144.73;100.00;54383.06;5033085;28;20032;-70
2023/09/17 08:49:23;;;;;;;12.73;5.80;;;;;;;-144.73;100.00;54376.91;5037079;28;20551;-70
2023/09/17 08:51:52;;;;;;;8.90;5.85;;;;;;;-144.73;100.00;54378.97;5034371;28;20118;-70
2023/09/17 08:54:28;;;;;;;11.35;5.95;;;;;;;-144.73;100.00;54374.84;5031757;28;20026;-69
2023/09/17 08:56:56;;;;;;;8.70;6.05;;;;;;;-144.73;100.00;54374.84;5037525;28;20112;-70
2023/09/17 08:59:29;;;;;;;9.00;5.18;;;;;;;-144.73;100.00;54370.75;5034917;28;20018;-70
2023/09/17 09:01:56;;;;;;;8.60;5.68;;;;;;;-144.73;100.00;54354.34;5035553;28;20140;-70
2023/09/17 09:04:23;;;;;;;6.45;5.07;;;;;;;-144.73;100.00;54366.66;5034351;28;20103;-70
2023/09/17 09:06:50;;;;;;;10.10;6.30;;;;;;;-144.73;100.00;54387.19;5034721;28;20045;-71
2023/09/17 09:09:16;;;;;;;7.70;5.45;;;;;;;-144.73;100.00;54383.06;5031035;28;20029;-73
2023/09/17 09:11:42;;;;;;;10.20;5.75;;;;;;;-144.73;100.00;54378.97;5033098;28;20048;-70
2023/09/17 09:14:08;;;;;;;12.15;6.22;;;;;;;-144.73;100.00;54391.28;5033091;28;20036;-70
2023/09/17 09:16:36;;;;;;;7.68;5.43;;;;;;;-144.73;100.00;54350.22;5037183;28;20025;-70
2023/09/17 09:19:02;;;;;;;8.20;5.72;;;;;;;-144.73;100.00;54346.13;5038519;28;20053;-70
2023/09/17 09:21:30;;;;;;;8.18;5.78;;;;;;;-144.73;100.00;54358.44;5037752;28;20146;-69
2023/09/17 09:23:57;;;;;;;15.63;5.90;;;;;;;-144.73;100.00;54364.59;5033157;28;20032;-70
2023/09/17 09:26:33;;;;;;;18.52;6.97;;;;;;;-144.73;99.38;54395.38;5037037;28;20052;-69
2023/09/17 09:28:58;;;;;;;9.00;6.25;;;;;;;-144.73;100.00;54381.00;5033158;28;20017;-70
2023/09/17 09:31:24;;;;;;;16.33;5.38;;;;;;;-144.73;98.72;54362.53;5035283;28;20033;-70
2023/09/17 09:33:50;;;;;;;15.32;6.15;;;;;;;-144.73;96.50;54333.81;5032689;28;20017;-70
2023/09/17 09:36:16;;;;;;;6.95;5.00;;;;;;;-144.73;94.72;54364.59;5033322;28;20045;-70
2023/09/17 09:38:42;;;;;;;7.50;6.18;;;;;;;-144.73;95.27;54354.34;5039572;28;20063;-70
2023/09/17 09:41:07;;;;;;;13.45;5.93;;;;;;;-144.73;97.46;54358.44;5038746;28;20041;-70
2023/09/17 09:43:33;;;;;;;8.00;5.70;;;;;;;-144.73;95.10;54376.91;5034635;28;20043;-70
2023/09/17 09:46:04;;;;;;;11.73;8.23;;;;;;;-144.73;96.28;54337.91;5034205;28;20052;-70
2023/09/17 09:48:30;;;;;;;12.20;6.63;;;;;;;-144.73;96.70;54372.81;5034198;28;20101;-70
2023/09/17 09:50:55;;;;;;;8.90;6.03;;;;;;;-144.73;95.61;54346.13;5032960;28;20042;-70
2023/09/17 09:53:21;;;;;;;8.02;5.70;;;;;;;-144.73;96.86;54378.97;5030572;28;20022;-70
2023/09/17 09:55:47;;;;;;;7.70;5.70;;;;;;;-144.73;96.25;54378.97;5033803;28;20052;-70
2023/09/17 09:58:14;;;;;;;10.25;5.65;;;;;;;-144.73;95.41;54366.66;5030413;28;20535;-70
2023/09/17 10:00:44;;;;;;;6.18;5.55;;;;;;;-144.73;97.57;54378.97;5033763;28;20315;-70
2023/09/17 10:03:11;;;;;;;9.75;5.60;;;;;;;-144.73;96.98;54417.97;5031688;28;20120;-70
2023/09/17 10:05:39;;;;;;;11.80;4.90;;;;;;;-144.73;97.03;54362.53;5028135;28;20062;-71
2023/09/17 10:08:07;;;;;;;10.98;6.07;;;;;;;-144.73;96.05;54370.75;5033296;28;20113;-70
2023/09/17 10:10:34;;;;;;;8.13;4.93;;;;;;;-144.73;95.89;54383.06;5033722;28;20025;-70
2023/09/17 10:13:04;;;;;;;7.45;5.32;;;;;;;-144.73;97.33;54411.81;5026638;28;20013;-71
2023/09/17 10:15:30;;;;;;;8.18;4.72;;;;;;;-144.73;98.00;54358.44;5031634;28;20059;-70
2023/09/17 10:17:57;;;;;;;12.20;5.30;;;;;;;-144.73;97.11;54358.44;5033513;28;20054;-71
2023/09/17 10:20:23;;;;;;;10.50;4.82;;;;;;;-144.73;96.51;54350.22;5028370;28;20030;-71
2023/09/17 10:22:51;;;;;;;8.70;5.43;;;;;;;-144.73;92.38;54344.06;5033671;28;20026;-70
2023/09/17 10:25:17;;;;;;;8.05;5.25;;;;;;;-144.73;91.64;54346.13;5031888;28;20033;-70
2023/09/17 10:27:44;;;;;;;8.55;5.38;;;;;;;-144.73;90.34;54329.72;5038409;28;20021;-73
2023/09/17 10:30:12;;;;;;;10.23;4.88;;;;;;;-144.73;87.47;54333.81;5033897;28;20150;-71
2023/09/17 10:32:39;;;;;;;7.38;4.97;;;;;;;-144.73;83.48;54317.38;5031336;28;20076;-71
2023/09/17 10:35:06;;;;;;;10.07;5.00;;;;;;;-144.73;82.47;54321.50;5032881;28;20025;-71
2023/09/17 10:37:35;;;;;;;8.93;5.20;;;;;;;-144.73;80.73;54350.22;5032486;28;20434;-71
2023/09/17 10:40:01;;;;;;;7.32;4.20;;;;;;;-144.73;85.30;54323.53;5031839;28;20080;-71
2023/09/17 10:42:29;;;;;;;10.45;5.47;;;;;;;-144.73;79.72;54329.72;5030818;28;20056;-72
2023/09/17 10:44:56;;;;;;;6.18;4.40;;;;;;;-144.73;82.08;54323.53;5031139;28;20111;-71
2023/09/17 10:47:23;;;;;;;7.72;4.88;;;;;;;-144.73;76.91;54319.44;5033322;28;20032;-71
2023/09/17 10:49:50;;;;;;;7.57;3.85;;;;;;;-144.73;77.65;54325.59;5032085;28;20040;-72
2023/09/17 10:52:17;;;;;;;10.60;4.55;;;;;;;-144.73;75.51;54321.50;5033572;28;20024;-71
2023/09/17 10:54:44;;;;;;;7.32;4.35;;;;;;;-144.73;74.07;54407.69;5034486;28;20041;-71